createdAt,value
2023-12-21T00:02:02.160Z,87.70
2023-12-21T00:04:30.926Z,87.60
2023-12-21T00:07:01.998Z,87.50
2023-12-21T00:09:30.467Z,87.50
2023-12-21T00:11:58.948Z,87.20
2023-12-21T00:14:28.459Z,87.40
2023-12-21T00:16:56.959Z,87.40
2023-12-21T00:19:25.439Z,87.20
2023-12-21T00:21:54.391Z,87.30
2023-12-21T00:24:24.302Z,87.20
2023-12-21T00:26:52.728Z,87.40
2023-12-21T00:29:21.158Z,87.50
2023-12-21T00:31:49.752Z,87.40
2023-12-21T00:34:18.171Z,87.20
2023-12-21T00:36:48.394Z,87.40
2023-12-21T00:39:16.937Z,87.20
2023-12-21T00:41:46.677Z,87.50
2023-12-21T00:44:15.071Z,87.50
2023-12-21T00:46:43.479Z,87.60
2023-12-21T00:49:11.975Z,87.90
2023-12-21T00:51:40.315Z,87.90
2023-12-21T00:54:08.751Z,87.90
2023-12-21T00:56:37.151Z,87.90
2023-12-21T00:59:07.070Z,87.80
2023-12-21T01:01:35.535Z,87.80
2023-12-21T01:04:03.988Z,87.90
2023-12-21T01:06:32.550Z,87.90
2023-12-21T01:09:00.906Z,88.10
2023-12-21T01:11:29.252Z,87.90
2023-12-21T01:13:57.716Z,87.80
2023-12-21T01:16:27.691Z,87.90
2023-12-21T01:18:56.257Z,88.10
2023-12-21T01:21:24.833Z,88.10
2023-12-21T01:23:53.206Z,88.00
2023-12-21T01:26:21.575Z,88.10
2023-12-21T01:28:49.998Z,88.20
2023-12-21T01:31:17.389Z,88.20
2023-12-21T01:33:47.246Z,88.20
2023-12-21T01:36:16.393Z,88.40
2023-12-21T01:38:44.918Z,88.10
2023-12-21T01:41:13.278Z,88.30
2023-12-21T01:43:41.839Z,88.30
2023-12-21T01:46:10.968Z,88.40
2023-12-21T01:48:39.843Z,88.60
2023-12-21T01:51:10.267Z,88.60
2023-12-21T01:53:40.779Z,88.60
2023-12-21T01:56:09.801Z,88.80
2023-12-21T01:58:40.055Z,88.80
2023-12-21T02:01:09.199Z,89.20
2023-12-21T02:03:37.672Z,89.20
2023-12-21T02:06:06.550Z,89.30
2023-12-21T02:08:36.421Z,89.50
2023-12-21T02:11:09.816Z,89.90
2023-12-21T02:13:38.825Z,90.00
2023-12-21T02:16:09.571Z,90.30
2023-12-21T02:18:39.171Z,90.50
2023-12-21T02:21:08.028Z,90.90
2023-12-21T02:23:41.028Z,91.20
2023-12-21T02:26:11.962Z,91.40
2023-12-21T02:28:40.551Z,91.60
2023-12-21T02:31:09.183Z,91.80
2023-12-21T02:33:37.704Z,91.90
2023-12-21T02:36:08.586Z,91.90
2023-12-21T02:38:37.035Z,91.90
2023-12-21T02:41:05.852Z,92.30
2023-12-21T02:43:35.767Z,92.40
2023-12-21T02:46:04.343Z,92.50
2023-12-21T02:48:33.686Z,92.60
2023-12-21T02:51:02.956Z,92.70
2023-12-21T02:53:31.423Z,92.70
2023-12-21T02:55:59.907Z,92.60
2023-12-21T02:58:28.356Z,92.70
2023-12-21T03:00:58.303Z,92.80
2023-12-21T03:03:26.984Z,92.80
2023-12-21T03:05:55.599Z,92.90
2023-12-21T03:08:25.453Z,93.10
2023-12-21T03:10:53.908Z,93.20
2023-12-21T03:13:22.420Z,93.30
2023-12-21T03:15:51.007Z,93.40
2023-12-21T03:18:20.779Z,93.80
2023-12-21T03:20:49.260Z,93.40
2023-12-21T03:23:17.623Z,93.60
2023-12-21T03:25:46.045Z,93.80
2023-12-21T03:28:15.591Z,93.90
2023-12-21T03:30:45.312Z,94.00
2023-12-21T03:33:13.939Z,94.00
2023-12-21T03:35:43.928Z,94.00
2023-12-21T03:38:12.372Z,94.10
2023-12-21T03:40:40.826Z,94.20
2023-12-21T03:43:09.358Z,94.30
2023-12-21T03:45:41.561Z,94.30
2023-12-21T03:48:10.584Z,94.30
2023-12-21T03:50:39.122Z,94.30
2023-12-21T03:53:09.730Z,94.40
2023-12-21T03:55:38.478Z,94.40
2023-12-21T03:58:07.189Z,94.30
2023-12-21T04:00:35.563Z,94.30
2023-12-21T04:03:04.441Z,94.40
2023-12-21T04:05:32.931Z,94.40
2023-12-21T04:08:01.548Z,94.40
2023-12-21T04:10:31.429Z,94.40
2023-12-21T04:12:59.902Z,94.30
2023-12-21T04:15:28.442Z,94.30
2023-12-21T04:17:56.942Z,94.20
2023-12-21T04:20:25.637Z,94.20
2023-12-21T04:22:54.008Z,94.20
2023-12-21T04:25:23.441Z,94.20
2023-12-21T04:27:53.229Z,94.20
2023-12-21T04:30:21.890Z,94.10
2023-12-21T04:32:50.541Z,94.10
2023-12-21T04:35:19.398Z,94.10
2023-12-21T04:37:47.895Z,94.10
2023-12-21T04:40:16.435Z,94.50
2023-12-21T04:42:46.399Z,94.00
2023-12-21T04:45:16.593Z,94.00
2023-12-21T04:47:45.825Z,94.00
2023-12-21T04:50:14.224Z,94.00
2023-12-21T04:52:42.815Z,94.00
2023-12-21T04:55:11.446Z,93.90
2023-12-21T04:57:39.816Z,93.90
2023-12-21T05:00:10.250Z,93.90
2023-12-21T05:02:40.307Z,93.90
2023-12-21T05:05:08.882Z,93.90
2023-12-21T05:07:38.644Z,94.00
2023-12-21T05:10:07.977Z,93.90
2023-12-21T05:12:36.384Z,93.90
2023-12-21T05:15:05.099Z,93.90
2023-12-21T05:17:33.537Z,93.80
2023-12-21T05:20:03.476Z,93.80
2023-12-21T05:22:32.071Z,93.80
2023-12-21T05:25:00.574Z,93.80
2023-12-21T05:27:29.088Z,93.80
2023-12-21T05:29:57.508Z,93.90
2023-12-21T05:32:25.906Z,94.00
2023-12-21T05:34:54.473Z,94.10
2023-12-21T05:37:24.289Z,94.30
2023-12-21T05:39:52.797Z,94.40
2023-12-21T05:42:21.259Z,94.40
2023-12-21T05:44:49.646Z,94.50
2023-12-21T05:47:18.075Z,94.50
2023-12-21T05:49:46.564Z,94.70
2023-12-21T05:52:15.348Z,94.50
2023-12-21T05:54:45.616Z,94.60
2023-12-21T05:57:15.049Z,94.60
2023-12-21T05:59:43.427Z,94.60
2023-12-21T06:02:12.253Z,94.60
2023-12-21T06:04:40.836Z,94.60
2023-12-21T06:07:09.403Z,94.60
2023-12-21T06:09:37.762Z,94.60
2023-12-21T06:12:09.130Z,94.50
2023-12-21T06:14:37.543Z,94.50
2023-12-21T06:17:06.204Z,94.50
2023-12-21T06:19:35.191Z,94.50
2023-12-21T06:22:03.737Z,94.40
2023-12-21T06:24:32.131Z,94.40
2023-12-21T06:27:00.804Z,94.40
2023-12-21T06:29:31.157Z,94.40
2023-12-21T06:31:59.616Z,94.40
2023-12-21T06:34:28.577Z,94.40
2023-12-21T06:36:57.101Z,94.30
2023-12-21T06:39:25.496Z,94.30
2023-12-21T06:41:53.894Z,94.30
2023-12-21T06:44:22.361Z,94.20
2023-12-21T06:46:52.949Z,94.20
2023-12-21T06:49:21.615Z,94.20
2023-12-21T06:51:50.128Z,94.10
2023-12-21T06:54:18.895Z,94.10
2023-12-21T06:56:47.429Z,94.10
2023-12-21T06:59:15.883Z,94.10
2023-12-21T07:01:44.279Z,94.10
2023-12-21T07:04:14.281Z,94.20
2023-12-21T07:06:42.706Z,94.10
2023-12-21T07:09:11.483Z,94.10
2023-12-21T07:11:39.905Z,94.20
2023-12-21T07:14:08.310Z,94.10
2023-12-21T07:16:37.306Z,94.10
2023-12-21T07:19:07.556Z,94.10
2023-12-21T07:21:37.529Z,94.10
2023-12-21T07:24:07.066Z,94.10
2023-12-21T07:26:37.967Z,94.10
2023-12-21T07:29:06.689Z,94.00
2023-12-21T07:31:35.147Z,94.10
2023-12-21T07:34:03.623Z,94.00
2023-12-21T07:36:32.024Z,94.10
2023-12-21T07:39:01.839Z,94.10
2023-12-21T07:41:30.306Z,94.00
2023-12-21T07:43:58.862Z,94.10
2023-12-21T07:46:27.334Z,94.30
2023-12-21T07:48:55.768Z,94.10
2023-12-21T07:51:24.133Z,94.00
2023-12-21T07:53:52.582Z,94.00
2023-12-21T07:56:22.611Z,94.00
2023-12-21T07:58:51.059Z,94.00
2023-12-21T08:01:19.533Z,94.00
2023-12-21T08:03:48.019Z,94.00
2023-12-21T08:06:23.397Z,93.90
2023-12-21T08:08:57.810Z,93.80
2023-12-21T08:11:30.882Z,93.80
2023-12-21T08:13:59.766Z,93.80
2023-12-21T08:16:28.262Z,93.80
2023-12-21T08:18:57.446Z,93.80
2023-12-21T08:21:26.048Z,93.90
2023-12-21T08:23:54.462Z,93.80
2023-12-21T08:26:22.941Z,93.80
2023-12-21T08:28:53.841Z,93.80
2023-12-21T08:31:26.807Z,93.80
2023-12-21T08:33:56.113Z,93.70
2023-12-21T08:36:24.769Z,93.70
2023-12-21T08:38:53.306Z,93.70
2023-12-21T08:41:22.468Z,93.70
2023-12-21T08:43:52.549Z,93.80
2023-12-21T08:46:20.993Z,93.70
2023-12-21T08:48:49.600Z,93.70
2023-12-21T08:51:19.756Z,93.70
2023-12-21T08:53:48.487Z,93.60
2023-12-21T08:56:17.628Z,93.70
2023-12-21T08:58:46.029Z,93.80
2023-12-21T09:01:16.321Z,93.90
2023-12-21T09:03:45.212Z,94.00
2023-12-21T09:06:13.819Z,94.10
2023-12-21T09:08:42.257Z,94.10
2023-12-21T09:11:10.675Z,94.00
2023-12-21T09:13:39.106Z,94.00
2023-12-21T09:16:08.179Z,93.90
2023-12-21T09:18:38.107Z,93.90
2023-12-21T09:21:07.157Z,93.80
2023-12-21T09:23:35.950Z,93.70
2023-12-21T09:26:04.728Z,93.60
2023-12-21T09:28:33.323Z,93.60
2023-12-21T09:31:01.917Z,93.60
2023-12-21T09:33:34.614Z,93.50
2023-12-21T09:36:04.800Z,93.50
2023-12-21T09:38:33.438Z,93.40
2023-12-21T09:41:02.229Z,93.40
2023-12-21T09:43:33.157Z,93.30
2023-12-21T09:46:02.913Z,93.30
2023-12-21T09:48:32.781Z,93.30
2023-12-21T09:51:03.870Z,93.30
2023-12-21T09:53:35.608Z,93.30
2023-12-21T09:56:04.472Z,93.30
2023-12-21T09:58:34.889Z,93.30
2023-12-21T10:01:05.111Z,93.30
2023-12-21T10:03:34.844Z,93.30
2023-12-21T10:06:04.632Z,93.30
2023-12-21T10:08:34.991Z,93.40
2023-12-21T10:11:07.247Z,93.40
2023-12-21T10:13:36.860Z,93.40
2023-12-21T10:16:05.882Z,93.40
2023-12-21T10:18:36.041Z,93.40
2023-12-21T10:21:04.773Z,93.50
2023-12-21T10:23:34.635Z,93.50
2023-12-21T10:26:03.102Z,93.60
2023-12-21T10:28:31.531Z,93.60
2023-12-21T10:31:02.316Z,93.60
2023-12-21T10:33:32.196Z,93.60
2023-12-21T10:36:00.991Z,93.60
2023-12-21T10:38:30.140Z,93.60
2023-12-21T10:41:06.560Z,93.70
2023-12-21T10:43:36.928Z,93.70
2023-12-21T10:46:05.825Z,93.60
2023-12-21T10:48:35.288Z,93.60
2023-12-21T10:51:06.530Z,93.60
2023-12-21T10:53:36.140Z,93.50
2023-12-21T10:56:08.072Z,93.60
2023-12-21T10:58:38.280Z,93.60
2023-12-21T11:01:08.218Z,93.60
2023-12-21T11:03:37.162Z,93.60
2023-12-21T11:06:06.608Z,93.60
2023-12-21T11:08:36.049Z,93.70
2023-12-21T11:11:07.081Z,93.70
2023-12-21T11:13:35.578Z,93.80
2023-12-21T11:16:04.386Z,93.80
2023-12-21T11:18:33.046Z,93.80
2023-12-21T11:21:03.771Z,93.90
2023-12-21T11:23:33.888Z,93.90
2023-12-21T11:26:02.311Z,94.00
2023-12-21T11:28:34.275Z,94.00
2023-12-21T11:31:14.349Z,93.90
2023-12-21T11:33:43.462Z,94.00
2023-12-21T11:36:12.297Z,94.00
2023-12-21T11:38:51.231Z,94.10
2023-12-21T11:41:25.346Z,94.10
2023-12-21T11:44:04.072Z,94.20
2023-12-21T11:46:34.210Z,94.30
2023-12-21T11:49:02.834Z,94.30
2023-12-21T11:51:31.276Z,94.30
2023-12-21T11:54:07.158Z,94.30
2023-12-21T11:56:40.689Z,94.30
2023-12-21T11:59:12.390Z,94.30
2023-12-21T12:01:41.057Z,94.30
2023-12-21T12:04:14.015Z,94.30
2023-12-21T12:06:43.735Z,94.30
2023-12-21T12:09:12.284Z,94.20
2023-12-21T12:11:41.196Z,94.20
2023-12-21T12:14:12.631Z,94.20
2023-12-21T12:16:41.084Z,94.30
2023-12-21T12:19:13.805Z,94.30
2023-12-21T12:21:42.565Z,94.30
2023-12-21T12:24:11.126Z,94.30
2023-12-21T12:26:39.884Z,94.30
2023-12-21T12:29:08.226Z,94.40
2023-12-21T12:31:38.622Z,94.40
2023-12-21T12:34:07.313Z,94.40
2023-12-21T12:36:35.795Z,94.50
2023-12-21T12:39:05.302Z,94.50
2023-12-21T12:41:34.246Z,94.60
2023-12-21T12:44:02.794Z,94.60
2023-12-21T12:46:32.250Z,94.70
2023-12-21T12:49:02.145Z,94.70
2023-12-21T12:51:32.055Z,94.70
2023-12-21T12:54:01.331Z,94.80
2023-12-21T12:56:29.902Z,94.70
2023-12-21T12:58:59.628Z,94.80
2023-12-21T13:01:29.897Z,94.80
2023-12-21T13:04:00.022Z,94.90
2023-12-21T13:06:30.623Z,94.80
2023-12-21T13:08:59.318Z,94.80
2023-12-21T13:11:30.723Z,94.80
2023-12-21T13:13:59.124Z,94.90
2023-12-21T13:16:27.635Z,94.90
2023-12-21T13:18:56.326Z,94.90
2023-12-21T13:21:24.836Z,94.90
2023-12-21T13:23:54.596Z,95.00
2023-12-21T13:26:23.024Z,94.90
2023-12-21T13:28:53.606Z,95.00
2023-12-21T13:31:22.172Z,95.00
2023-12-21T13:33:50.720Z,95.10
2023-12-21T13:36:19.362Z,95.50
2023-12-21T13:38:48.775Z,95.60
2023-12-21T13:41:18.620Z,95.90
2023-12-21T13:43:49.738Z,95.60
2023-12-21T13:46:22.430Z,96.10
2023-12-21T13:48:51.175Z,96.10
2023-12-21T13:51:19.846Z,96.10
2023-12-21T13:53:48.229Z,96.10
2023-12-21T13:56:18.162Z,96.20
2023-12-21T13:58:46.657Z,96.10
2023-12-21T14:01:15.271Z,96.20
2023-12-21T14:03:43.863Z,96.10
2023-12-21T14:06:12.625Z,96.10
2023-12-21T14:08:41.090Z,96.30
2023-12-21T14:11:09.577Z,96.20
2023-12-21T14:13:39.375Z,96.30
2023-12-21T14:16:08.642Z,96.30
2023-12-21T14:18:37.396Z,96.50
2023-12-21T14:21:06.389Z,96.70
2023-12-21T14:23:34.778Z,96.80
